Time;durP1;ratioP1;P1;durP2;ratioP2;P2;SDS_P1;SDS_P2;PMS_P1;PMS_P2;Temp;Humidity;BMP_temperature;BMP_pressure;BME280_temperature;BME280_humidity;BME280_pressure;Samples;Min_cycle;Max_cycle;Signal;HPM_P1;HPM_P2
2022/11/17 00:01:18;;;;;;;0.23;0.20;;;;;;;;;;1771267;80;27403;-53
2022/11/17 00:03:47;;;;;;;0.35;0.10;;;;;;;;;;1773605;80;26757;-53
2022/11/17 00:06:15;;;;;;;0.10;0.10;;;;;;;;;;1772730;79;26318;-50
2022/11/17 00:08:42;;;;;;;0.20;0.20;;;;;;;;;;1771688;80;27474;-51
2022/11/17 00:11:09;;;;;;;0.10;0.10;;;;;;;;;;1771473;80;27138;-49
2022/11/17 00:16:22;;;;;;;0.20;0.20;;;;;;;;;;1777631;80;26295;-49
2022/11/17 00:21:35;;;;;;;0.10;0.10;;;;;;;;;;1743863;81;26309;-49
2022/11/17 00:24:02;;;;;;;0.10;0.10;;;;;;;;;;1743787;81;26241;-49
2022/11/17 00:26:33;;;;;;;0.10;0.10;;;;;;;;;;1712891;82;26364;-50
2022/11/17 00:29:03;;;;;;;0.20;0.20;;;;;;;;;;1771658;81;26393;-49
2022/11/17 00:34:19;;;;;;;0.15;0.15;;;;;;;;;;1741265;81;26282;-50
2022/11/17 00:36:48;;;;;;;0.10;0.10;;;;;;;;;;1735228;81;26760;-51
2022/11/17 00:39:16;;;;;;;0.17;0.10;;;;;;;;;;1756279;81;26296;-54
2022/11/17 00:41:43;;;;;;;0.10;0.10;;;;;;;;;;1757558;80;26982;-51
2022/11/17 00:44:11;;;;;;;0.10;0.10;;;;;;;;;;1756942;80;26291;-52
2022/11/17 00:46:38;;;;;;;0.10;0.10;;;;;;;;;;1757373;81;26292;-50
2022/11/17 00:49:06;;;;;;;0.10;0.10;;;;;;;;;;1756898;80;26288;-48
2022/11/17 00:51:34;;;;;;;0.03;0.03;;;;;;;;;;1773848;80;27503;-51
2022/11/17 00:54:02;;;;;;;0.03;0.03;;;;;;;;;;1779348;80;26331;-50
2022/11/17 00:56:29;;;;;;;0.13;0.13;;;;;;;;;;1754939;81;26847;-48
2022/11/17 00:58:57;;;;;;;0.10;0.10;;;;;;;;;;1776974;79;26277;-50
2022/11/17 01:01:24;;;;;;;2.02;0.53;;;;;;;;;;1784795;80;26215;-49
2022/11/17 01:04:01;;;;;;;0.10;0.10;;;;;;;;;;1785137;80;26334;-49
2022/11/17 01:06:20;;;;;;;0.10;0.10;;;;;;;;;;1782762;80;26781;-48
2022/11/17 01:08:48;;;;;;;0.00;0.00;;;;;;;;;;1785161;79;27539;-47
2022/11/17 01:11:17;;;;;;;2.15;0.10;;;;;;;;;;1784521;79;26362;-49
2022/11/17 01:13:45;;;;;;;0.10;0.10;;;;;;;;;;1784805;80;26366;-49
2022/11/17 01:16:17;;;;;;;0.10;0.10;;;;;;;;;;1785075;80;26289;-51
2022/11/17 01:18:45;;;;;;;0.10;0.10;;;;;;;;;;1784943;80;27016;-48
2022/11/17 01:21:14;;;;;;;0.00;0.00;;;;;;;;;;1776865;79;26370;-48
2022/11/17 01:23:42;;;;;;;0.00;0.00;;;;;;;;;;1775338;80;26795;-48
2022/11/17 01:26:11;;;;;;;0.15;0.10;;;;;;;;;;1799081;79;26329;-50
2022/11/17 01:28:38;;;;;;;0.10;0.10;;;;;;;;;;1770210;80;26302;-49
2022/11/17 01:31:07;;;;;;;0.00;0.00;;;;;;;;;;1783985;80;26841;-50
2022/11/17 01:33:34;;;;;;;0.10;0.10;;;;;;;;;;1784649;79;26860;-48
2022/11/17 01:36:06;;;;;;;0.10;0.10;;;;;;;;;;1784880;80;26314;-50
2022/11/17 01:38:34;;;;;;;0.10;0.10;;;;;;;;;;1783159;80;26419;-49
2022/11/17 01:41:02;;;;;;;1.12;0.10;;;;;;;;;;1784927;79;26815;-50
2022/11/17 01:43:43;;;;;;;0.00;0.00;;;;;;;;;;1784688;79;26274;-48
2022/11/17 01:46:24;;;;;;;0.10;0.10;;;;;;;;;;1786978;80;26388;-53
2022/11/17 01:48:51;;;;;;;0.40;0.10;;;;;;;;;;1788193;80;26528;-50
2022/11/17 01:51:19;;;;;;;0.10;0.10;;;;;;;;;;1787955;80;26281;-52
2022/11/17 01:53:49;;;;;;;0.00;0.00;;;;;;;;;;1787646;79;26755;-53
2022/11/17 01:56:20;;;;;;;0.00;0.00;;;;;;;;;;1768447;80;26337;-52
2022/11/17 01:58:49;;;;;;;0.08;0.08;;;;;;;;;;1787549;80;26334;-50
2022/11/17 02:01:16;;;;;;;0.10;0.10;;;;;;;;;;1786862;80;26424;-51
2022/11/17 02:03:45;;;;;;;0.10;0.10;;;;;;;;;;1784643;80;26369;-49
2022/11/17 02:06:14;;;;;;;0.10;0.10;;;;;;;;;;1787132;79;27103;-51
2022/11/17 02:08:42;;;;;;;0.17;0.17;;;;;;;;;;1787590;80;26789;-52
2022/11/17 02:11:11;;;;;;;0.10;0.10;;;;;;;;;;1782444;79;26266;-53
2022/11/17 02:13:39;;;;;;;0.00;0.00;;;;;;;;;;1787528;80;26270;-50
2022/11/17 02:16:08;;;;;;;0.10;0.10;;;;;;;;;;1799057;79;26810;-52
2022/11/17 02:18:36;;;;;;;0.17;0.17;;;;;;;;;;1785244;80;27159;-50
2022/11/17 02:21:21;;;;;;;0.10;0.10;;;;;;;;;;1787721;80;26265;-51
2022/11/17 02:24:05;;;;;;;0.10;0.10;;;;;;;;;;1787542;80;26751;-54
2022/11/17 02:26:52;;;;;;;0.10;0.10;;;;;;;;;;1787841;79;26368;-52
2022/11/17 02:29:24;;;;;;;0.00;0.00;;;;;;;;;;1787378;80;26981;-52
2022/11/17 02:31:53;;;;;;;0.00;0.00;;;;;;;;;;1770021;80;26737;-53
2022/11/17 02:34:24;;;;;;;0.10;0.10;;;;;;;;;;1786441;80;26563;-52
2022/11/17 02:37:02;;;;;;;0.00;0.00;;;;;;;;;;1787116;80;26411;-52
2022/11/17 02:39:34;;;;;;;0.00;0.00;;;;;;;;;;1786723;79;26277;-52
2022/11/17 02:42:05;;;;;;;0.10;0.10;;;;;;;;;;1780967;80;26315;-50
2022/11/17 02:44:46;;;;;;;0.10;0.10;;;;;;;;;;1784557;79;26776;-49
2022/11/17 02:47:18;;;;;;;0.10;0.10;;;;;;;;;;1770044;80;26295;-51
2022/11/17 02:49:47;;;;;;;0.45;0.00;;;;;;;;;;1753412;80;26302;-51
2022/11/17 02:52:15;;;;;;;0.00;0.00;;;;;;;;;;1756879;80;26317;-49
2022/11/17 02:54:42;;;;;;;0.33;0.13;;;;;;;;;;1742200;81;26264;-51
2022/11/17 02:57:27;;;;;;;0.00;0.00;;;;;;;;;;1765404;80;26300;-49
2022/11/17 02:59:56;;;;;;;0.10;0.10;;;;;;;;;;1755780;80;26240;-52
2022/11/17 03:02:31;;;;;;;0.10;0.10;;;;;;;;;;1756181;80;26748;-52
2022/11/17 03:05:15;;;;;;;0.10;0.10;;;;;;;;;;1758203;80;26855;-48
2022/11/17 03:08:00;;;;;;;0.00;0.00;;;;;;;;;;1756544;81;26279;-52
2022/11/17 03:10:35;;;;;;;0.10;0.10;;;;;;;;;;1756205;80;26373;-52
2022/11/17 03:13:10;;;;;;;0.03;0.03;;;;;;;;;;1757720;80;26302;-53
2022/11/17 03:15:47;;;;;;;0.00;0.00;;;;;;;;;;1755557;80;26331;-51
2022/11/17 03:18:25;;;;;;;0.10;0.10;;;;;;;;;;1741674;81;26240;-48
2022/11/17 03:21:00;;;;;;;0.10;0.10;;;;;;;;;;1726392;81;26306;-50
2022/11/17 03:23:35;;;;;;;0.10;0.10;;;;;;;;;;1750755;80;26289;-50
2022/11/17 03:26:03;;;;;;;0.05;0.05;;;;;;;;;;1770723;80;26720;-50
2022/11/17 03:28:32;;;;;;;0.10;0.10;;;;;;;;;;1771533;80;26266;-50
2022/11/17 03:31:01;;;;;;;0.10;0.10;;;;;;;;;;1770134;80;26372;-51
2022/11/17 03:33:28;;;;;;;0.00;0.00;;;;;;;;;;1784089;80;26282;-49
2022/11/17 03:36:00;;;;;;;0.10;0.10;;;;;;;;;;1771679;80;26809;-49
2022/11/17 03:38:29;;;;;;;0.10;0.10;;;;;;;;;;1771385;80;26278;-48
2022/11/17 03:40:58;;;;;;;0.10;0.10;;;;;;;;;;1771561;80;26267;-50
2022/11/17 03:43:26;;;;;;;0.10;0.10;;;;;;;;;;1771234;80;26718;-51
2022/11/17 03:45:55;;;;;;;0.10;0.10;;;;;;;;;;1772918;79;26329;-52
2022/11/17 03:48:29;;;;;;;0.10;0.10;;;;;;;;;;1785741;79;26408;-50
2022/11/17 03:50:58;;;;;;;0.10;0.10;;;;;;;;;;1788813;79;26238;-52
2022/11/17 03:53:25;;;;;;;0.05;0.05;;;;;;;;;;1787964;80;26796;-52
2022/11/17 03:56:06;;;;;;;0.05;0.05;;;;;;;;;;1788825;79;26253;-49
2022/11/17 03:58:35;;;;;;;0.00;0.00;;;;;;;;;;1788440;79;26226;-52
2022/11/17 04:01:04;;;;;;;0.00;0.00;;;;;;;;;;1788792;79;26799;-49
2022/11/17 04:03:32;;;;;;;0.10;0.10;;;;;;;;;;1788705;79;26288;-48
2022/11/17 04:06:00;;;;;;;0.53;0.10;;;;;;;;;;1788304;79;26290;-50
2022/11/17 04:08:29;;;;;;;0.00;0.00;;;;;;;;;;1788832;79;26215;-52
2022/11/17 04:16:28;;;;;;;0.05;0.05;;;;;;;;;;1788956;79;26305;-51
2022/11/17 04:18:55;;;;;;;0.00;0.00;;;;;;;;;;1769920;79;26286;-51
2022/11/17 04:21:22;;;;;;;0.10;0.10;;;;;;;;;;1788892;79;26406;-52
2022/11/17 04:23:50;;;;;;;0.08;0.08;;;;;;;;;;1788708;79;26338;-50
2022/11/17 04:29:02;;;;;;;0.10;0.10;;;;;;;;;;1761204;79;26303;-50
2022/11/17 04:31:30;;;;;;;0.10;0.10;;;;;;;;;;1748561;82;26273;-53
2022/11/17 04:33:59;;;;;;;0.10;0.10;;;;;;;;;;1788629;80;26304;-52
2022/11/17 04:36:30;;;;;;;0.10;0.10;;;;;;;;;;1782310;80;26261;-49
2022/11/17 04:38:59;;;;;;;0.10;0.10;;;;;;;;;;1758466;80;26232;-53
2022/11/17 04:44:13;;;;;;;0.10;0.10;;;;;;;;;;1775756;79;26850;-54
2022/11/17 04:46:43;;;;;;;0.05;0.05;;;;;;;;;;1757913;81;26304;-54
2022/11/17 04:49:10;;;;;;;0.05;0.05;;;;;;;;;;1761772;80;26291;-54
2022/11/17 04:51:38;;;;;;;0.00;0.00;;;;;;;;;;1787727;79;26352;-53
2022/11/17 04:54:06;;;;;;;0.10;0.10;;;;;;;;;;1785594;79;26292;-53
2022/11/17 04:56:33;;;;;;;0.15;0.10;;;;;;;;;;1785339;79;26289;-49
2022/11/17 04:59:01;;;;;;;0.10;0.10;;;;;;;;;;1785334;79;26812;-52
2022/11/17 05:01:28;;;;;;;0.17;0.17;;;;;;;;;;1785571;79;26265;-51
2022/11/17 05:03:57;;;;;;;0.10;0.10;;;;;;;;;;1785171;79;26285;-50
2022/11/17 05:06:30;;;;;;;0.10;0.10;;;;;;;;;;1786202;79;26276;-49
2022/11/17 05:08:58;;;;;;;0.10;0.10;;;;;;;;;;1785022;79;26320;-51
2022/11/17 05:14:14;;;;;;;0.20;0.20;;;;;;;;;;1783127;80;26424;-52
2022/11/17 05:19:28;;;;;;;0.20;0.20;;;;;;;;;;1779022;80;26295;-51
2022/11/17 05:21:55;;;;;;;0.60;0.10;;;;;;;;;;1785408;79;26739;-48
2022/11/17 05:24:23;;;;;;;0.10;0.10;;;;;;;;;;1776059;79;26370;-52
2022/11/17 05:26:50;;;;;;;0.80;0.10;;;;;;;;;;1789939;79;26301;-50
2022/11/17 05:29:19;;;;;;;0.37;0.37;;;;;;;;;;1770898;80;26324;-49
2022/11/17 05:31:46;;;;;;;1.07;0.10;;;;;;;;;;1779979;80;26352;-49
2022/11/17 05:34:16;;;;;;;1.65;0.20;;;;;;;;;;1795427;79;26310;-52
2022/11/17 05:36:44;;;;;;;0.15;0.15;;;;;;;;;;1784538;80;26275;-48
2022/11/17 05:39:12;;;;;;;0.10;0.10;;;;;;;;;;1771630;80;26370;-53
2022/11/17 05:41:40;;;;;;;0.10;0.10;;;;;;;;;;1784221;79;26775;-48
2022/11/17 05:44:07;;;;;;;0.20;0.20;;;;;;;;;;1783892;79;26294;-49
2022/11/17 05:46:35;;;;;;;0.10;0.10;;;;;;;;;;1784635;80;26364;-47
2022/11/17 05:49:02;;;;;;;0.80;0.30;;;;;;;;;;1784847;79;27422;-50
2022/11/17 05:51:31;;;;;;;0.68;0.30;;;;;;;;;;1784480;80;26306;-52
2022/11/17 05:53:58;;;;;;;0.20;0.20;;;;;;;;;;1785064;80;26353;-52
2022/11/17 05:56:45;;;;;;;1.22;0.30;;;;;;;;;;1782622;79;26401;-51
2022/11/17 05:59:20;;;;;;;0.65;0.30;;;;;;;;;;1784168;80;26849;-49
2022/11/17 06:01:52;;;;;;;0.28;0.28;;;;;;;;;;1784582;80;26330;-50
2022/11/17 06:04:20;;;;;;;1.05;0.40;;;;;;;;;;1783567;80;26290;-53
2022/11/17 06:06:47;;;;;;;0.98;0.40;;;;;;;;;;1784705;79;27535;-50
2022/11/17 06:09:15;;;;;;;0.47;0.30;;;;;;;;;;1784607;79;26302;-50
2022/11/17 06:11:43;;;;;;;0.30;0.30;;;;;;;;;;1784910;79;26338;-46
2022/11/17 06:14:10;;;;;;;0.30;0.30;;;;;;;;;;1784113;80;26277;-50
2022/11/17 06:16:39;;;;;;;1.00;0.40;;;;;;;;;;1784216;79;26369;-50
2022/11/17 06:19:08;;;;;;;0.50;0.40;;;;;;;;;;1776251;79;26365;-47
2022/11/17 06:21:36;;;;;;;4.60;0.45;;;;;;;;;;1784927;80;26788;-48
2022/11/17 06:24:05;;;;;;;1.47;0.50;;;;;;;;;;1776199;80;26308;-48
2022/11/17 06:26:33;;;;;;;1.55;0.30;;;;;;;;;;1773909;80;26754;-48
2022/11/17 06:29:02;;;;;;;1.75;0.50;;;;;;;;;;1784394;79;26285;-50
2022/11/17 06:31:31;;;;;;;3.65;0.40;;;;;;;;;;1775872;80;26755;-49
2022/11/17 06:34:00;;;;;;;0.45;0.30;;;;;;;;;;1785076;80;27349;-49
2022/11/17 06:36:28;;;;;;;3.35;0.50;;;;;;;;;;1784981;80;26290;-48
2022/11/17 06:38:56;;;;;;;0.42;0.33;;;;;;;;;;1784311;79;26259;-49
2022/11/17 06:41:23;;;;;;;2.65;0.60;;;;;;;;;;1784510;79;26376;-51
2022/11/17 06:43:50;;;;;;;1.00;0.40;;;;;;;;;;1784752;80;26352;-48
2022/11/17 06:46:18;;;;;;;0.28;0.28;;;;;;;;;;1779759;80;26283;-50
2022/11/17 06:48:45;;;;;;;0.33;0.33;;;;;;;;;;1784321;80;26416;-48
2022/11/17 06:51:13;;;;;;;1.12;0.40;;;;;;;;;;1784726;79;26325;-51
2022/11/17 06:53:40;;;;;;;1.00;0.33;;;;;;;;;;1785019;80;26846;-50
2022/11/17 06:56:07;;;;;;;0.65;0.30;;;;;;;;;;1783610;79;26739;-47
2022/11/17 06:58:36;;;;;;;1.00;0.30;;;;;;;;;;1783848;80;26359;-48
2022/11/17 07:01:08;;;;;;;0.30;0.30;;;;;;;;;;1783865;79;26298;-49
2022/11/17 07:03:37;;;;;;;1.00;0.42;;;;;;;;;;1782659;80;26286;-49
2022/11/17 07:06:05;;;;;;;0.25;0.20;;;;;;;;;;1783397;80;26790;-47
2022/11/17 07:08:33;;;;;;;0.25;0.25;;;;;;;;;;1784793;80;26833;-49
2022/11/17 07:11:04;;;;;;;1.15;0.50;;;;;;;;;;1784801;79;26375;-48
2022/11/17 07:13:32;;;;;;;2.75;0.42;;;;;;;;;;1786103;79;27587;-52
2022/11/17 07:16:04;;;;;;;0.30;0.30;;;;;;;;;;1774821;79;26292;-50
2022/11/17 07:18:31;;;;;;;0.40;0.35;;;;;;;;;;1778118;80;26990;-51
2022/11/17 07:21:02;;;;;;;0.82;0.45;;;;;;;;;;1772452;80;26383;-48
2022/11/17 07:23:30;;;;;;;0.35;0.35;;;;;;;;;;1776491;79;26293;-47
2022/11/17 07:25:58;;;;;;;0.90;0.30;;;;;;;;;;1777338;80;26274;-47
2022/11/17 07:28:25;;;;;;;0.30;0.30;;;;;;;;;;1783305;80;26352;-48
2022/11/17 07:30:54;;;;;;;0.42;0.40;;;;;;;;;;1782621;80;27205;-51
2022/11/17 07:33:23;;;;;;;0.40;0.40;;;;;;;;;;1782305;79;26302;-48
2022/11/17 07:35:50;;;;;;;0.45;0.37;;;;;;;;;;1782102;79;26376;-49
2022/11/17 07:38:18;;;;;;;1.20;0.23;;;;;;;;;;1784487;80;25905;-49
2022/11/17 07:40:45;;;;;;;0.23;0.23;;;;;;;;;;1783913;79;26334;-49
2022/11/17 07:43:12;;;;;;;0.20;0.20;;;;;;;;;;1783175;80;26470;-51
2022/11/17 07:45:40;;;;;;;0.30;0.30;;;;;;;;;;1783932;79;26387;-47
2022/11/17 07:48:07;;;;;;;1.27;0.28;;;;;;;;;;1782667;80;26356;-51
2022/11/17 07:50:35;;;;;;;0.30;0.30;;;;;;;;;;1786602;80;26238;-49
2022/11/17 07:53:03;;;;;;;0.45;0.45;;;;;;;;;;1787078;80;26285;-50
2022/11/17 07:55:30;;;;;;;0.23;0.23;;;;;;;;;;1786373;79;26380;-48
2022/11/17 07:57:58;;;;;;;0.40;0.40;;;;;;;;;;1778800;79;26285;-51
2022/11/17 08:00:27;;;;;;;0.33;0.33;;;;;;;;;;1777808;80;26356;-52
2022/11/17 08:02:54;;;;;;;0.30;0.30;;;;;;;;;;1787450;80;26270;-52
2022/11/17 08:05:22;;;;;;;0.70;0.40;;;;;;;;;;1793632;79;26278;-51
2022/11/17 08:07:55;;;;;;;0.20;0.20;;;;;;;;;;1784717;79;26274;-48
2022/11/17 08:10:25;;;;;;;0.30;0.30;;;;;;;;;;1787139;79;26277;-52
2022/11/17 08:12:52;;;;;;;0.30;0.30;;;;;;;;;;1786626;80;26353;-52
2022/11/17 08:15:21;;;;;;;0.20;0.20;;;;;;;;;;1786357;80;26746;-48
2022/11/17 08:17:53;;;;;;;0.40;0.40;;;;;;;;;;1789275;79;26348;-47
2022/11/17 08:20:20;;;;;;;0.20;0.20;;;;;;;;;;1790638;79;26380;-49
2022/11/17 08:22:51;;;;;;;0.37;0.20;;;;;;;;;;1787593;80;26266;-50
2022/11/17 08:25:20;;;;;;;0.20;0.20;;;;;;;;;;1787697;80;26301;-52
2022/11/17 08:27:51;;;;;;;0.20;0.20;;;;;;;;;;1787728;80;26340;-50
2022/11/17 08:30:19;;;;;;;0.85;0.20;;;;;;;;;;1783269;79;26299;-50
2022/11/17 08:32:48;;;;;;;0.20;0.20;;;;;;;;;;1787993;80;26353;-48
2022/11/17 08:35:16;;;;;;;0.30;0.30;;;;;;;;;;1786590;80;26258;-48
2022/11/17 08:37:43;;;;;;;0.20;0.20;;;;;;;;;;1768451;80;26387;-52
2022/11/17 08:40:12;;;;;;;0.47;0.20;;;;;;;;;;1770409;79;26274;-52
2022/11/17 08:42:39;;;;;;;0.20;0.20;;;;;;;;;;1787577;80;26940;-53
2022/11/17 08:45:07;;;;;;;0.30;0.30;;;;;;;;;;1769850;80;26316;-51
2022/11/17 08:47:34;;;;;;;0.28;0.28;;;;;;;;;;1787841;80;26298;-53
2022/11/17 08:50:02;;;;;;;0.30;0.30;;;;;;;;;;1785767;79;26345;-52
2022/11/17 08:52:29;;;;;;;0.20;0.20;;;;;;;;;;1785101;79;26295;-50
2022/11/17 08:54:56;;;;;;;0.20;0.20;;;;;;;;;;1784939;79;26287;-53
2022/11/17 08:57:23;;;;;;;0.10;0.10;;;;;;;;;;1784830;80;26819;-52
2022/11/17 08:59:51;;;;;;;0.30;0.30;;;;;;;;;;1773510;80;26299;-50
2022/11/17 09:02:18;;;;;;;0.20;0.20;;;;;;;;;;1778996;79;26332;-53
2022/11/17 09:04:46;;;;;;;0.20;0.20;;;;;;;;;;1784926;80;26286;-52
2022/11/17 09:07:13;;;;;;;0.30;0.30;;;;;;;;;;1784902;80;26373;-52
2022/11/17 09:09:41;;;;;;;0.20;0.20;;;;;;;;;;1784652;79;26592;-50
2022/11/17 09:12:08;;;;;;;0.20;0.20;;;;;;;;;;1784739;79;26278;-52
2022/11/17 09:14:36;;;;;;;0.30;0.30;;;;;;;;;;1783892;79;26364;-52
2022/11/17 09:17:03;;;;;;;0.28;0.28;;;;;;;;;;1784404;80;26290;-49
2022/11/17 09:19:31;;;;;;;0.20;0.20;;;;;;;;;;1784152;80;26301;-51
2022/11/17 09:21:58;;;;;;;0.20;0.20;;;;;;;;;;1784554;80;26481;-52
2022/11/17 09:24:26;;;;;;;0.20;0.20;;;;;;;;;;1778959;79;26323;-51
2022/11/17 09:26:56;;;;;;;0.30;0.30;;;;;;;;;;1776612;80;26812;-50
2022/11/17 09:29:23;;;;;;;0.20;0.20;;;;;;;;;;1768011;80;26246;-51
2022/11/17 09:31:50;;;;;;;0.28;0.28;;;;;;;;;;1783546;80;26487;-49
2022/11/17 09:34:18;;;;;;;0.20;0.20;;;;;;;;;;1783870;79;26364;-48
2022/11/17 09:36:47;;;;;;;0.20;0.20;;;;;;;;;;1784412;80;26770;-51
2022/11/17 09:39:17;;;;;;;0.20;0.20;;;;;;;;;;1784519;80;26389;-45
2022/11/17 09:41:45;;;;;;;0.10;0.10;;;;;;;;;;1784867;79;26546;-48
2022/11/17 09:44:14;;;;;;;0.10;0.10;;;;;;;;;;1797755;79;26420;-49
2022/11/17 09:46:55;;;;;;;0.20;0.20;;;;;;;;;;1786353;79;26298;-47
2022/11/17 09:49:36;;;;;;;0.10;0.10;;;;;;;;;;1784903;79;27467;-51
2022/11/17 09:52:19;;;;;;;0.10;0.10;;;;;;;;;;1773525;80;26841;-50
2022/11/17 09:54:48;;;;;;;0.20;0.20;;;;;;;;;;1784724;80;26270;-49
2022/11/17 09:57:20;;;;;;;0.20;0.20;;;;;;;;;;1785034;79;26329;-48
2022/11/17 09:59:49;;;;;;;0.10;0.10;;;;;;;;;;1784508;80;26832;-49
2022/11/17 10:02:16;;;;;;;0.20;0.20;;;;;;;;;;1784796;80;26727;-50
2022/11/17 10:04:43;;;;;;;0.20;0.20;;;;;;;;;;1766566;80;26735;-48
2022/11/17 10:07:11;;;;;;;0.10;0.10;;;;;;;;;;1784698;79;26363;-50
2022/11/17 10:09:39;;;;;;;0.15;0.15;;;;;;;;;;1784806;79;26380;-50
2022/11/17 10:12:17;;;;;;;0.20;0.20;;;;;;;;;;1784874;80;26326;-49
2022/11/17 10:14:46;;;;;;;0.20;0.20;;;;;;;;;;1778413;80;26274;-50
2022/11/17 10:17:13;;;;;;;0.20;0.20;;;;;;;;;;1766239;79;27018;-52
2022/11/17 10:19:42;;;;;;;0.10;0.10;;;;;;;;;;1785177;79;26281;-50
2022/11/17 10:22:14;;;;;;;0.20;0.20;;;;;;;;;;1767195;79;26396;-52
2022/11/17 10:24:42;;;;;;;0.10;0.10;;;;;;;;;;1784920;80;26844;-50
2022/11/17 10:27:26;;;;;;;0.05;0.05;;;;;;;;;;1783902;80;26352;-50
2022/11/17 10:30:01;;;;;;;0.15;0.15;;;;;;;;;;1785093;79;26396;-48
2022/11/17 10:32:30;;;;;;;0.08;0.08;;;;;;;;;;1768550;80;26699;-49
2022/11/17 10:34:59;;;;;;;0.20;0.20;;;;;;;;;;1782748;79;26298;-49
2022/11/17 10:37:29;;;;;;;0.20;0.20;;;;;;;;;;1758734;80;26313;-47
2022/11/17 10:40:03;;;;;;;0.20;0.20;;;;;;;;;;1778601;79;26325;-49
2022/11/17 10:42:31;;;;;;;0.10;0.10;;;;;;;;;;1783239;80;26238;-49
2022/11/17 10:44:59;;;;;;;0.10;0.10;;;;;;;;;;1784896;80;26289;-48
2022/11/17 10:47:34;;;;;;;0.10;0.10;;;;;;;;;;1784822;80;26688;-46
2022/11/17 10:50:06;;;;;;;0.10;0.10;;;;;;;;;;1784970;79;26365;-52
2022/11/17 10:52:33;;;;;;;0.20;0.20;;;;;;;;;;1793428;79;27339;-51
2022/11/17 10:55:19;;;;;;;0.20;0.20;;;;;;;;;;1784950;80;26864;-50
2022/11/17 10:57:47;;;;;;;0.20;0.20;;;;;;;;;;1784445;80;26814;-50
2022/11/17 11:00:32;;;;;;;0.10;0.10;;;;;;;;;;1784548;80;26606;-52
2022/11/17 11:03:03;;;;;;;0.10;0.10;;;;;;;;;;1784549;79;26801;-51
2022/11/17 11:05:31;;;;;;;0.10;0.10;;;;;;;;;;1781227;80;26294;-52
2022/11/17 11:08:08;;;;;;;0.10;0.10;;;;;;;;;;1784867;80;26270;-49
2022/11/17 11:10:36;;;;;;;0.20;0.20;;;;;;;;;;1783653;79;26428;-47
2022/11/17 11:13:22;;;;;;;0.20;0.20;;;;;;;;;;1784947;79;26344;-46
2022/11/17 11:15:50;;;;;;;0.10;0.10;;;;;;;;;;1784510;80;26854;-50
2022/11/17 11:18:18;;;;;;;0.20;0.20;;;;;;;;;;1784618;80;26441;-52
2022/11/17 11:20:58;;;;;;;0.10;0.10;;;;;;;;;;1757826;80;26277;-54
2022/11/17 11:23:29;;;;;;;0.17;0.17;;;;;;;;;;1768382;79;26434;-52
2022/11/17 11:26:15;;;;;;;0.28;0.28;;;;;;;;;;1785366;80;26286;-49
2022/11/17 11:28:59;;;;;;;0.10;0.10;;;;;;;;;;1769053;79;26597;-50
2022/11/17 11:31:44;;;;;;;0.20;0.20;;;;;;;;;;1783836;80;26286;-49
2022/11/17 11:34:14;;;;;;;0.13;0.13;;;;;;;;;;1783729;80;26302;-48
2022/11/17 11:36:43;;;;;;;0.10;0.10;;;;;;;;;;1784825;79;26465;-53
2022/11/17 11:39:21;;;;;;;0.10;0.10;;;;;;;;;;1784615;79;26301;-50
2022/11/17 11:41:59;;;;;;;0.20;0.20;;;;;;;;;;1784668;79;26286;-48
2022/11/17 11:44:28;;;;;;;0.20;0.20;;;;;;;;;;1764192;80;26316;-50
2022/11/17 11:46:57;;;;;;;0.20;0.20;;;;;;;;;;1782851;80;26231;-51
2022/11/17 11:49:31;;;;;;;0.17;0.17;;;;;;;;;;1779907;79;26279;-50
2022/11/17 11:51:59;;;;;;;0.13;0.13;;;;;;;;;;1762068;80;26333;-51
2022/11/17 11:54:28;;;;;;;0.20;0.20;;;;;;;;;;1780706;79;27365;-50
2022/11/17 11:56:56;;;;;;;0.20;0.20;;;;;;;;;;1784159;80;26803;-49
2022/11/17 11:59:27;;;;;;;0.30;0.30;;;;;;;;;;1784398;79;26375;-50
2022/11/17 12:02:14;;;;;;;0.20;0.20;;;;;;;;;;1759956;80;26294;-49
2022/11/17 12:04:58;;;;;;;0.20;0.20;;;;;;;;;;1784687;80;26286;-48
2022/11/17 12:07:27;;;;;;;0.20;0.20;;;;;;;;;;1778458;80;26252;-50
2022/11/17 12:09:59;;;;;;;0.28;0.28;;;;;;;;;;1772423;79;26290;-48
2022/11/17 12:12:28;;;;;;;0.20;0.20;;;;;;;;;;1784589;79;26356;-51
2022/11/17 12:15:12;;;;;;;0.30;0.30;;;;;;;;;;1790449;79;26344;-50
2022/11/17 12:17:40;;;;;;;0.30;0.30;;;;;;;;;;1768772;80;26341;-50
2022/11/17 12:20:26;;;;;;;0.20;0.20;;;;;;;;;;1751744;80;26376;-48
2022/11/17 12:23:11;;;;;;;0.20;0.20;;;;;;;;;;1781485;79;26232;-49
2022/11/17 12:25:40;;;;;;;0.10;0.10;;;;;;;;;;1767418;80;26410;-48
2022/11/17 12:28:26;;;;;;;0.20;0.20;;;;;;;;;;1784391;80;26590;-49
2022/11/17 12:30:55;;;;;;;0.20;0.20;;;;;;;;;;1785081;80;26364;-51
2022/11/17 12:33:22;;;;;;;0.23;0.23;;;;;;;;;;1731285;80;26236;-50
2022/11/17 12:35:57;;;;;;;0.30;0.30;;;;;;;;;;1784996;80;27398;-48
2022/11/17 12:38:32;;;;;;;0.15;0.15;;;;;;;;;;1736905;80;26244;-51
2022/11/17 12:40:59;;;;;;;0.20;0.20;;;;;;;;;;1785053;79;26312;-48
2022/11/17 12:43:28;;;;;;;0.20;0.20;;;;;;;;;;1778974;79;26355;-49
2022/11/17 12:45:57;;;;;;;0.20;0.20;;;;;;;;;;1785082;80;26384;-54
2022/11/17 12:48:26;;;;;;;0.20;0.20;;;;;;;;;;1782352;80;26291;-49
2022/11/17 12:51:00;;;;;;;0.30;0.30;;;;;;;;;;1784693;80;26321;-50
2022/11/17 12:53:45;;;;;;;0.20;0.20;;;;;;;;;;1785420;80;26278;-52
2022/11/17 12:56:13;;;;;;;0.20;0.20;;;;;;;;;;1780799;79;26274;-48
2022/11/17 12:58:59;;;;;;;0.20;0.20;;;;;;;;;;1786017;79;26289;-48
2022/11/17 13:01:44;;;;;;;0.20;0.20;;;;;;;;;;1787442;80;26282;-50
2022/11/17 13:04:19;;;;;;;0.10;0.10;;;;;;;;;;1770853;79;26286;-48
2022/11/17 13:07:03;;;;;;;0.30;0.30;;;;;;;;;;1787697;79;26715;-51
2022/11/17 13:09:32;;;;;;;0.20;0.20;;;;;;;;;;1770697;80;26301;-52
2022/11/17 13:12:00;;;;;;;0.30;0.30;;;;;;;;;;1780385;79;26341;-50
2022/11/17 13:14:27;;;;;;;0.30;0.30;;;;;;;;;;1786657;80;26227;-50
2022/11/17 13:16:54;;;;;;;0.13;0.13;;;;;;;;;;1789908;79;26251;-52
2022/11/17 13:19:36;;;;;;;0.30;0.30;;;;;;;;;;1787865;80;26961;-53
2022/11/17 13:22:14;;;;;;;0.28;0.28;;;;;;;;;;1786925;80;26751;-49
2022/11/17 13:24:45;;;;;;;0.37;0.37;;;;;;;;;;1787791;79;26277;-50
2022/11/17 13:27:17;;;;;;;0.20;0.20;;;;;;;;;;1768783;80;26273;-53
2022/11/17 13:29:44;;;;;;;0.30;0.30;;;;;;;;;;1785574;79;26333;-49
2022/11/17 13:32:13;;;;;;;0.30;0.30;;;;;;;;;;1786435;80;26336;-46
2022/11/17 13:34:58;;;;;;;0.30;0.30;;;;;;;;;;1786296;79;26552;-51
2022/11/17 13:37:29;;;;;;;0.40;0.40;;;;;;;;;;1786101;80;26678;-47
2022/11/17 13:39:59;;;;;;;0.40;0.40;;;;;;;;;;1786661;79;26309;-46
2022/11/17 13:42:27;;;;;;;0.30;0.30;;;;;;;;;;1776139;80;26286;-49
2022/11/17 13:44:56;;;;;;;0.30;0.30;;;;;;;;;;1787866;80;26286;-50
2022/11/17 13:47:38;;;;;;;0.20;0.20;;;;;;;;;;1773580;80;26274;-51
2022/11/17 13:50:25;;;;;;;0.20;0.20;;;;;;;;;;1787530;79;26254;-52
2022/11/17 13:52:57;;;;;;;0.37;0.37;;;;;;;;;;1784020;79;26463;-50
2022/11/17 13:55:25;;;;;;;0.30;0.30;;;;;;;;;;1763998;81;26246;-51
2022/11/17 13:57:53;;;;;;;0.30;0.30;;;;;;;;;;1725150;82;26290;-50
2022/11/17 14:00:21;;;;;;;0.40;0.40;;;;;;;;;;1726678;81;26328;-49
2022/11/17 14:02:53;;;;;;;0.30;0.30;;;;;;;;;;1718218;81;26290;-52
2022/11/17 14:05:22;;;;;;;0.30;0.30;;;;;;;;;;1743580;82;26243;-51
2022/11/17 14:07:50;;;;;;;0.40;0.40;;;;;;;;;;1760979;81;26286;-49
2022/11/17 14:10:21;;;;;;;0.40;0.40;;;;;;;;;;1731233;81;26683;-49
2022/11/17 14:12:53;;;;;;;0.33;0.30;;;;;;;;;;1740090;81;26584;-51
2022/11/17 14:15:22;;;;;;;0.30;0.30;;;;;;;;;;1730543;81;26376;-49
2022/11/17 14:17:51;;;;;;;0.30;0.30;;;;;;;;;;1771223;81;26411;-47
2022/11/17 14:20:26;;;;;;;0.40;0.40;;;;;;;;;;1741487;82;26363;-51
2022/11/17 14:23:04;;;;;;;0.35;0.30;;;;;;;;;;1756639;80;26357;-48
2022/11/17 14:25:35;;;;;;;0.40;0.40;;;;;;;;;;1739263;81;26274;-50
2022/11/17 14:28:03;;;;;;;0.40;0.40;;;;;;;;;;1741349;82;26356;-52
2022/11/17 14:30:30;;;;;;;0.40;0.40;;;;;;;;;;1741969;82;26366;-47
2022/11/17 14:32:57;;;;;;;0.33;0.33;;;;;;;;;;1741806;81;26212;-50
2022/11/17 14:35:25;;;;;;;0.45;0.45;;;;;;;;;;1757232;81;26208;-51
2022/11/17 14:37:52;;;;;;;0.40;0.40;;;;;;;;;;1756793;81;26287;-48
2022/11/17 14:40:19;;;;;;;0.50;0.50;;;;;;;;;;1756882;80;26228;-50
2022/11/17 14:42:46;;;;;;;0.35;0.35;;;;;;;;;;1759993;80;26274;-51
2022/11/17 14:45:15;;;;;;;0.50;0.50;;;;;;;;;;1756567;80;26216;-50
2022/11/17 14:47:43;;;;;;;0.40;0.40;;;;;;;;;;1751040;81;26333;-50
2022/11/17 14:50:15;;;;;;;0.70;0.50;;;;;;;;;;1757002;80;26806;-51
2022/11/17 14:52:43;;;;;;;0.45;0.45;;;;;;;;;;1766533;79;26623;-49
2022/11/17 14:55:12;;;;;;;0.50;0.50;;;;;;;;;;1783050;79;26248;-53
2022/11/17 14:57:39;;;;;;;0.40;0.40;;;;;;;;;;1782990;80;26330;-52
2022/11/17 15:00:08;;;;;;;0.53;0.53;;;;;;;;;;1767724;80;26294;-49
2022/11/17 15:02:36;;;;;;;0.40;0.40;;;;;;;;;;1781516;80;27508;-50
2022/11/17 15:05:04;;;;;;;0.45;0.45;;;;;;;;;;1783436;80;26735;-50
2022/11/17 15:07:31;;;;;;;0.50;0.50;;;;;;;;;;1783077;79;26279;-52
2022/11/17 15:09:59;;;;;;;0.47;0.40;;;;;;;;;;1783246;79;26326;-52
2022/11/17 15:12:28;;;;;;;0.40;0.40;;;;;;;;;;1769833;80;26216;-52
2022/11/17 15:14:59;;;;;;;0.40;0.40;;;;;;;;;;1779545;80;26890;-52
2022/11/17 15:17:25;;;;;;;2.12;0.40;;;;;;;;;;1782036;80;26289;-51
2022/11/17 15:19:52;;;;;;;0.33;0.33;;;;;;;;;;1783115;80;26245;-49
2022/11/17 15:22:20;;;;;;;0.40;0.40;;;;;;;;;;1782869;80;26201;-53
2022/11/17 15:24:47;;;;;;;0.40;0.40;;;;;;;;;;1780731;80;26248;-52
2022/11/17 15:27:14;;;;;;;0.50;0.45;;;;;;;;;;1784626;79;26213;-50